createdAt,value
2019-02-24T00:01:58.024Z,20.50
2019-02-24T00:07:58.095Z,20.45
2019-02-24T00:13:58.162Z,20.41
2019-02-24T00:19:58.019Z,20.37
2019-02-24T00:25:58.049Z,20.33
2019-02-24T00:31:58.082Z,20.30
2019-02-24T00:37:58.064Z,20.28
2019-02-24T00:43:58.061Z,20.20
2019-02-24T00:49:58.060Z,20.13
2019-02-24T00:55:58.120Z,20.09
2019-02-24T01:01:59.858Z,20.02
2019-02-24T01:07:58.093Z,19.98
2019-02-24T01:13:58.150Z,19.95
2019-02-24T01:19:58.076Z,19.91
2019-02-24T01:25:58.071Z,19.85
2019-02-24T01:31:58.171Z,19.83
2019-02-24T01:37:58.072Z,19.81
2019-02-24T01:43:58.163Z,19.78
2019-02-24T01:49:58.267Z,19.72
2019-02-24T01:55:58.134Z,19.68
2019-02-24T02:01:58.176Z,19.67
2019-02-24T02:07:58.112Z,19.63
2019-02-24T02:13:58.097Z,19.60
2019-02-24T02:19:58.109Z,19.58
2019-02-24T02:25:58.311Z,19.54
2019-02-24T02:31:58.107Z,19.50
2019-02-24T02:37:58.223Z,19.46
2019-02-24T02:43:58.159Z,19.40
2019-02-24T02:49:58.243Z,19.41
2019-02-24T02:55:58.140Z,19.40
2019-02-24T03:01:58.193Z,19.37
2019-02-24T03:07:58.121Z,19.31
2019-02-24T03:13:58.184Z,19.27
2019-02-24T03:19:58.145Z,19.23
2019-02-24T03:25:58.145Z,19.22
2019-02-24T03:31:58.185Z,19.19
2019-02-24T03:37:58.239Z,19.13
2019-02-24T03:43:58.165Z,19.14
2019-02-24T03:49:58.162Z,19.11
2019-02-24T03:55:58.180Z,19.09
2019-02-24T04:01:58.159Z,19.07
2019-02-24T04:07:58.167Z,19.02
2019-02-24T04:13:58.302Z,19.00
2019-02-24T04:19:58.182Z,18.97
2019-02-24T04:25:58.200Z,18.94
2019-02-24T04:31:58.194Z,18.92
2019-02-24T04:37:58.250Z,18.88
2019-02-24T04:43:58.203Z,18.87
2019-02-24T04:49:58.213Z,18.84
2019-02-24T04:55:58.206Z,18.82
2019-02-24T05:01:58.213Z,18.76
2019-02-24T05:07:58.218Z,18.73
2019-02-24T05:13:58.225Z,18.69
2019-02-24T05:19:58.230Z,18.67
2019-02-24T05:25:58.223Z,18.60
2019-02-24T05:31:58.226Z,18.60
2019-02-24T05:37:58.236Z,18.54
2019-02-24T05:43:58.246Z,18.51
2019-02-24T05:49:58.342Z,18.47
2019-02-24T05:55:58.252Z,18.42
2019-02-24T06:01:58.253Z,18.38
2019-02-24T06:07:58.257Z,18.40
2019-02-24T06:13:58.329Z,18.35
2019-02-24T06:19:58.285Z,18.32
2019-02-24T06:25:58.269Z,18.29
2019-02-24T06:31:58.284Z,18.24
2019-02-24T06:37:58.286Z,18.22
2019-02-24T06:43:58.315Z,18.20
2019-02-24T06:49:58.289Z,18.17
2019-02-24T06:55:58.290Z,18.15
2019-02-24T07:01:58.297Z,18.14
2019-02-24T07:07:58.527Z,18.11
2019-02-24T07:13:58.285Z,18.08
2019-02-24T07:19:58.305Z,18.06
2019-02-24T07:25:58.417Z,18.03
2019-02-24T07:31:58.320Z,18.01
2019-02-24T07:37:58.323Z,18.01
2019-02-24T07:43:58.320Z,17.98
2019-02-24T07:49:58.380Z,17.96
2019-02-24T07:55:58.418Z,17.94
2019-02-24T08:01:58.366Z,18.02
2019-02-24T08:07:58.408Z,18.08
2019-02-24T08:13:58.446Z,17.99
2019-02-24T08:19:58.337Z,17.94
2019-02-24T08:25:58.433Z,17.94
2019-02-24T08:31:58.348Z,17.96
2019-02-24T08:37:58.357Z,17.90
2019-02-24T08:43:58.473Z,18.03
2019-02-24T08:49:58.360Z,18.08
2019-02-24T08:55:58.432Z,18.05
2019-02-24T09:01:58.479Z,18.03
2019-02-24T09:07:58.423Z,18.00
2019-02-24T09:13:58.463Z,17.93
2019-02-24T09:19:58.401Z,17.96
2019-02-24T09:25:58.468Z,18.00
2019-02-24T09:31:58.476Z,17.96
2019-02-24T09:37:58.447Z,18.04
2019-02-24T09:43:58.486Z,18.05
2019-02-24T09:49:58.511Z,18.06
2019-02-24T09:55:58.455Z,18.19
2019-02-24T10:01:58.489Z,18.22
2019-02-24T10:07:58.525Z,18.43
2019-02-24T10:13:58.496Z,18.35
2019-02-24T10:19:58.509Z,18.25
2019-02-24T10:25:58.467Z,18.15
2019-02-24T10:31:58.507Z,18.37
2019-02-24T10:37:58.433Z,18.34
2019-02-24T10:43:58.489Z,18.36
2019-02-24T10:49:58.434Z,18.35
2019-02-24T10:55:58.442Z,18.33
2019-02-24T11:01:58.447Z,18.38
2019-02-24T11:07:58.460Z,18.30
2019-02-24T11:13:58.438Z,18.36
2019-02-24T11:19:58.469Z,18.34
2019-02-24T11:25:58.481Z,18.19
2019-02-24T11:31:58.458Z,18.13
2019-02-24T11:37:58.559Z,18.12
2019-02-24T11:43:58.481Z,18.11
2019-02-24T11:49:58.477Z,18.08
2019-02-24T11:55:58.499Z,18.09
2019-02-24T12:01:58.511Z,18.09
2019-02-24T12:07:58.496Z,18.06
2019-02-24T12:13:58.508Z,18.04
2019-02-24T12:19:58.525Z,18.06
2019-02-24T12:25:58.563Z,18.05
2019-02-24T12:31:58.520Z,18.03
2019-02-24T12:37:58.533Z,18.05
2019-02-24T12:43:58.516Z,18.04
2019-02-24T12:50:03.131Z,18.04
2019-02-24T12:55:58.600Z,18.06
2019-02-24T13:02:05.512Z,18.07
2019-02-24T13:07:58.527Z,18.08
2019-02-24T13:13:58.523Z,18.10
2019-02-24T13:19:58.568Z,18.06
2019-02-24T13:25:58.529Z,18.05
2019-02-24T13:31:58.551Z,18.06
2019-02-24T13:37:58.560Z,18.06
2019-02-24T13:43:58.549Z,18.05
2019-02-24T13:49:58.540Z,18.08
2019-02-24T13:55:58.623Z,18.12
2019-02-24T14:01:58.564Z,18.18
2019-02-24T14:07:58.552Z,18.32
2019-02-24T14:13:58.557Z,18.42
2019-02-24T14:19:59.972Z,18.51
2019-02-24T14:25:58.618Z,18.67
2019-02-24T14:31:58.651Z,20.27
2019-02-24T14:37:58.592Z,20.85
2019-02-24T14:43:58.637Z,20.77
2019-02-24T14:49:58.622Z,19.94
2019-02-24T14:55:58.606Z,19.57
2019-02-24T15:01:58.603Z,19.23
2019-02-24T15:07:58.607Z,18.78
2019-02-24T15:13:58.594Z,18.50
2019-02-24T15:19:58.688Z,18.92
2019-02-24T15:25:58.636Z,19.09
2019-02-24T15:31:58.642Z,20.08
2019-02-24T15:37:58.614Z,19.18
2019-02-24T15:43:58.644Z,19.57
2019-02-24T15:49:59.162Z,18.85
2019-02-24T15:55:58.635Z,18.57
2019-02-24T16:01:59.691Z,18.34
2019-02-24T16:07:58.714Z,18.38
2019-02-24T16:13:58.673Z,18.65
2019-02-24T16:19:58.726Z,18.61
2019-02-24T16:25:58.762Z,18.70
2019-02-24T16:31:58.683Z,18.58
2019-02-24T16:37:58.727Z,18.55
2019-02-24T16:43:58.671Z,18.66
2019-02-24T16:49:58.711Z,18.82
2019-02-24T16:55:58.687Z,19.48
2019-02-24T17:28:48.942Z,20.11
2019-02-24T17:34:48.949Z,19.88
2019-02-24T17:40:48.954Z,19.72
2019-02-24T17:46:48.969Z,19.76
2019-02-24T17:52:48.965Z,19.82
2019-02-24T17:58:49.031Z,19.87
2019-02-24T18:04:49.013Z,19.93
2019-02-24T18:10:49.015Z,20.02
2019-02-24T18:16:49.036Z,20.04
2019-02-24T18:22:49.032Z,20.05
2019-02-24T18:28:48.973Z,20.10
2019-02-24T18:34:48.996Z,20.12
2019-02-24T18:40:48.985Z,20.14
2019-02-24T18:46:49.017Z,20.13
2019-02-24T18:52:49.016Z,20.10
2019-02-24T18:58:49.027Z,20.09
2019-02-24T19:04:49.017Z,20.10
2019-02-24T19:10:49.019Z,20.09
2019-02-24T19:16:49.195Z,20.06
2019-02-24T19:22:49.043Z,20.04
2019-02-24T19:28:49.040Z,20.01
2019-02-24T19:34:49.044Z,19.98
2019-02-24T19:40:49.067Z,19.94
2019-02-24T19:46:49.055Z,19.93
2019-02-24T19:52:49.054Z,19.89
2019-02-24T19:58:49.157Z,19.86
2019-02-24T20:04:49.046Z,19.82
2019-02-24T20:10:49.096Z,19.79
2019-02-24T20:16:49.101Z,19.75
2019-02-24T20:22:49.071Z,19.72
2019-02-24T20:28:49.063Z,19.66
2019-02-24T20:34:49.082Z,19.63
2019-02-24T20:40:49.134Z,19.63
2019-02-24T20:46:49.104Z,19.57
2019-02-24T20:52:49.105Z,19.54
2019-02-24T20:58:49.202Z,19.49
2019-02-24T21:04:49.153Z,19.45
2019-02-24T21:10:49.114Z,19.47
2019-02-24T22:01:32.425Z,19.48
2019-02-24T22:07:32.499Z,19.41
2019-02-24T22:13:32.633Z,19.36
2019-02-24T22:19:32.470Z,19.35
2019-02-24T22:25:32.458Z,19.32
2019-02-24T22:31:32.693Z,19.27
2019-02-24T22:37:32.539Z,19.20
2019-02-24T22:43:32.640Z,19.14
2019-02-24T22:49:32.482Z,19.11
2019-02-24T22:55:32.573Z,19.08
2019-02-24T23:01:32.492Z,19.05
2019-02-24T23:07:32.515Z,19.03
2019-02-24T23:13:32.468Z,18.98
2019-02-24T23:19:32.476Z,18.97
2019-02-24T23:25:32.474Z,18.93
2019-02-24T23:31:32.497Z,18.91
2019-02-24T23:37:32.486Z,18.88
2019-02-24T23:43:32.513Z,18.84
2019-02-24T23:49:32.498Z,18.85
2019-02-24T23:55:32.496Z,18.82
